createdAt,value
2023-03-17T14:47:18.578Z,133.58
2023-03-17T14:51:18.773Z,162.03
2023-03-17T14:55:18.770Z,185.94
2023-03-17T14:59:18.775Z,205.68
2023-03-17T15:03:18.774Z,131.76
2023-03-17T15:07:18.800Z,108.68
2023-03-17T15:11:18.797Z,121.87
2023-03-17T15:15:18.791Z,107.39
2023-03-17T15:19:18.281Z,84.66
2023-03-17T15:23:18.288Z,62.54
2023-03-17T15:27:18.271Z,72.15
2023-03-17T15:39:18.350Z,100.26
2023-03-17T15:43:18.280Z,113.06
2023-03-17T15:47:18.251Z,119.47
2023-03-17T15:51:18.229Z,107.03
2023-03-17T15:55:18.202Z,64.86
2023-03-17T15:59:18.158Z,83.25
2023-03-17T16:03:18.134Z,53.66
2023-03-17T16:07:18.076Z,51.98
2023-03-17T16:19:17.999Z,56.00
2023-03-17T20:51:19.393Z,87.87
2023-03-17T20:55:19.346Z,88.26
2023-03-17T20:59:19.309Z,83.63
2023-03-17T21:03:19.392Z,82.91
2023-03-17T21:07:19.245Z,92.96
2023-03-17T21:11:19.203Z,97.29
2023-03-17T21:15:19.172Z,111.60
2023-03-17T21:19:19.232Z,111.97
2023-03-17T21:23:19.475Z,111.12
2023-03-17T21:27:19.684Z,125.91
2023-03-17T21:31:19.832Z,127.95
2023-03-17T21:35:19.847Z,134.18
2023-03-17T21:39:19.918Z,107.36
2023-03-17T21:43:20.114Z,97.70
2023-03-17T21:47:20.101Z,86.18
2023-03-17T21:51:20.059Z,124.00
2023-03-17T21:55:20.009Z,102.83
2023-03-17T21:59:19.975Z,97.96
2023-03-17T22:03:20.018Z,99.44
2023-03-17T22:07:19.920Z,84.80
2023-03-17T22:11:19.895Z,89.77
2023-03-17T22:15:19.821Z,108.52
2023-03-17T22:19:21.298Z,122.04
2023-03-17T22:23:19.752Z,141.60
2023-03-17T22:27:19.724Z,156.07
2023-03-17T22:31:19.690Z,164.12
2023-03-17T22:35:19.665Z,133.88
2023-03-17T22:39:19.735Z,111.62
2023-03-17T22:43:19.919Z,106.39
2023-03-17T22:47:20.095Z,95.86
2023-03-17T22:51:20.434Z,107.51
2023-03-17T22:55:20.435Z,101.92
2023-03-17T22:59:20.466Z,107.30
2023-03-17T23:03:21.009Z,110.03
2023-03-17T23:07:20.959Z,102.52
2023-03-17T23:11:20.960Z,112.11
2023-03-17T23:15:21.040Z,104.45
2023-03-17T23:19:20.964Z,106.90
2023-03-17T23:23:20.578Z,107.35
2023-03-17T23:27:20.546Z,112.07
2023-03-17T23:31:20.577Z,136.59
2023-03-17T23:35:20.477Z,138.02
2023-03-17T23:39:20.432Z,148.34
2023-03-17T23:43:20.382Z,156.02
2023-03-17T23:47:20.471Z,150.53
2023-03-17T23:51:20.453Z,145.83
2023-03-17T23:55:20.471Z,150.88
2023-03-17T23:59:20.330Z,138.97
